createdAt,value
2022-10-23T00:00:47.892Z,95545.28
2022-10-23T00:04:31.996Z,95547.31
2022-10-23T00:08:14.721Z,95544.84
2022-10-23T00:11:57.432Z,95540.81
2022-10-23T00:15:40.187Z,95547.50
2022-10-23T00:19:22.988Z,95533.53
2022-10-23T00:23:07.054Z,95549.94
2022-10-23T00:26:50.574Z,95534.34
2022-10-23T00:30:33.350Z,95535.97
2022-10-23T00:34:16.007Z,95540.22
2022-10-23T00:37:58.655Z,95535.97
2022-10-23T00:41:42.942Z,95531.50
2022-10-23T00:45:26.931Z,95531.72
2022-10-23T00:52:54.852Z,95529.91
2022-10-23T00:56:39.254Z,95531.13
2022-10-23T01:00:26.830Z,95537.19
2022-10-23T01:04:09.780Z,95535.97
2022-10-23T01:07:55.910Z,95533.13
2022-10-23T01:11:44.690Z,95535.72
2022-10-23T01:15:33.190Z,95527.63
2022-10-23T01:19:21.940Z,95531.06
2022-10-23T01:23:24.361Z,95518.31
2022-10-23T01:27:22.905Z,95508.38
2022-10-23T01:31:10.542Z,95506.97
2022-10-23T01:34:58.455Z,95509.19
2022-10-23T01:38:44.929Z,95516.06
2022-10-23T01:42:30.832Z,95509.78
2022-10-23T01:46:17.449Z,95512.41
2022-10-23T01:50:01.171Z,95505.94
2022-10-23T01:53:45.493Z,95495.22
2022-10-23T01:57:31.375Z,95490.34
2022-10-23T02:01:14.913Z,95485.69
2022-10-23T02:05:00.438Z,95492.34
2022-10-23T02:08:43.198Z,95484.88
2022-10-23T02:12:34.130Z,95476.16
2022-10-23T02:16:22.979Z,95469.69
2022-10-23T02:20:14.837Z,95470.06
2022-10-23T02:24:01.200Z,95466.81
2022-10-23T02:27:50.416Z,95462.16
2022-10-23T02:31:33.419Z,95454.88
2022-10-23T02:35:16.586Z,95457.28
2022-10-23T02:38:59.370Z,95454.03
2022-10-23T02:42:46.628Z,95457.03
2022-10-23T02:46:35.254Z,95438.63
2022-10-23T02:50:26.126Z,95439.84
2022-10-23T02:54:13.238Z,95434.38
2022-10-23T02:57:58.354Z,95439.63
2022-10-23T03:01:47.411Z,95439.03
2022-10-23T03:05:32.834Z,95432.97
2022-10-23T03:09:15.529Z,95434.16
2022-10-23T03:12:58.325Z,95437.59
2022-10-23T03:16:42.463Z,95431.72
2022-10-23T03:20:25.374Z,95432.13
2022-10-23T03:24:08.352Z,95421.00
2022-10-23T03:27:51.100Z,95420.38
2022-10-23T03:31:33.754Z,95407.03
2022-10-23T03:35:17.996Z,95400.16
2022-10-23T03:39:00.676Z,95412.47
2022-10-23T03:42:43.432Z,95416.31
2022-10-23T03:46:26.092Z,95417.50
2022-10-23T03:50:09.610Z,95423.13
2022-10-23T03:53:53.684Z,95416.72
2022-10-23T03:57:36.537Z,95410.44
2022-10-23T04:01:19.325Z,95412.25
2022-10-23T04:05:02.065Z,95421.97
2022-10-23T04:08:47.513Z,95406.19
2022-10-23T04:12:31.725Z,95404.59
2022-10-23T04:16:14.584Z,95411.81
2022-10-23T04:19:57.642Z,95414.44
2022-10-23T04:23:40.408Z,95410.19
2022-10-23T04:27:23.199Z,95406.75
2022-10-23T04:31:07.450Z,95408.56
2022-10-23T04:34:50.122Z,95415.03
2022-10-23T04:38:33.065Z,95420.69
2022-10-23T04:42:18.282Z,95408.56
2022-10-23T04:46:01.066Z,95407.13
2022-10-23T04:49:45.129Z,95418.63
2022-10-23T04:53:28.284Z,95406.53
2022-10-23T04:57:10.979Z,95398.03
2022-10-23T05:00:54.079Z,95411.34
2022-10-23T05:04:36.891Z,95408.72
2022-10-23T05:08:20.934Z,95395.19
2022-10-23T05:12:03.637Z,95393.56
2022-10-23T05:15:47.067Z,95397.19
2022-10-23T05:19:32.294Z,95390.50
2022-10-23T05:23:16.235Z,95382.84
2022-10-23T05:27:00.276Z,95384.66
2022-10-23T05:30:46.077Z,95381.41
2022-10-23T05:34:29.087Z,95373.72
2022-10-23T05:38:12.469Z,95375.75
2022-10-23T05:41:56.128Z,95376.75
2022-10-23T05:45:40.120Z,95377.75
2022-10-23T05:49:25.062Z,95385.00
2022-10-23T05:53:07.692Z,95373.91
2022-10-23T05:56:50.336Z,95378.53
2022-10-23T06:00:33.432Z,95370.66
2022-10-23T06:04:17.492Z,95387.03
2022-10-23T06:08:00.610Z,95386.25
2022-10-23T06:11:43.630Z,95394.34
2022-10-23T06:15:26.310Z,95386.28
2022-10-23T06:19:12.471Z,95390.97
2022-10-23T06:22:56.578Z,95378.66
2022-10-23T06:26:39.223Z,95386.34
2022-10-23T06:30:21.866Z,95381.50
2022-10-23T06:34:06.150Z,95385.19
2022-10-23T06:37:48.895Z,95381.97
2022-10-23T06:41:32.939Z,95377.56
2022-10-23T06:45:15.656Z,95387.13
2022-10-23T06:48:58.326Z,95385.34
2022-10-23T06:52:47.122Z,95385.97
2022-10-23T06:56:31.831Z,95388.59
2022-10-23T07:00:14.966Z,95402.94
2022-10-23T07:03:57.923Z,95405.19
2022-10-23T07:07:40.616Z,95401.94
2022-10-23T07:11:26.155Z,95399.28
2022-10-23T07:15:10.820Z,95398.22
2022-10-23T07:18:58.831Z,95388.06
2022-10-23T07:22:41.784Z,95381.97
2022-10-23T07:26:25.056Z,95372.25
2022-10-23T07:30:13.573Z,95368.34
2022-10-23T07:33:56.279Z,95380.09
2022-10-23T07:37:39.384Z,95391.06
2022-10-23T07:41:22.292Z,95393.28
2022-10-23T07:45:07.403Z,95401.19
2022-10-23T07:48:51.522Z,95388.38
2022-10-23T07:52:36.167Z,95389.38
2022-10-23T07:56:22.424Z,95387.72
2022-10-23T08:00:06.201Z,95385.84
2022-10-23T08:03:48.974Z,95386.25
2022-10-23T08:07:33.037Z,95380.53
2022-10-23T08:11:16.621Z,95385.13
2022-10-23T08:14:59.227Z,95374.50
2022-10-23T08:18:42.733Z,95375.00
2022-10-23T08:22:25.411Z,95370.81
2022-10-23T08:26:10.047Z,95378.63
2022-10-23T08:29:52.710Z,95372.63
2022-10-23T08:33:35.480Z,95383.50
2022-10-23T08:37:18.290Z,95378.13
2022-10-23T08:41:02.739Z,95374.34
2022-10-23T08:44:52.983Z,95381.09
2022-10-23T08:48:39.197Z,95372.34
2022-10-23T08:52:26.366Z,95361.84
2022-10-23T08:56:14.135Z,95363.91
2022-10-23T09:00:00.291Z,95350.72
2022-10-23T09:03:44.505Z,95350.19
2022-10-23T09:07:35.532Z,95344.91
2022-10-23T09:11:22.323Z,95347.47
2022-10-23T09:15:22.411Z,95357.94
2022-10-23T09:19:16.333Z,95341.56
2022-10-23T09:23:00.623Z,95335.50
2022-10-23T09:26:43.222Z,95334.25
2022-10-23T09:30:29.310Z,95325.72
2022-10-23T09:34:20.510Z,95335.63
2022-10-23T09:38:03.265Z,95337.00
2022-10-23T09:41:45.960Z,95338.47
2022-10-23T09:45:32.811Z,95323.97
2022-10-23T09:49:20.036Z,95315.97
2022-10-23T09:53:02.878Z,95313.19
2022-10-23T10:00:51.130Z,95304.72
2022-10-23T10:04:41.933Z,95304.56
2022-10-23T10:08:30.037Z,95294.69
2022-10-23T10:12:30.943Z,95295.72
2022-10-23T10:16:20.691Z,95304.63
2022-10-23T10:20:13.502Z,95298.44
2022-10-23T10:24:01.531Z,95306.09
2022-10-23T10:27:50.169Z,95296.47
2022-10-23T10:31:43.644Z,95296.41
2022-10-23T10:35:37.228Z,95293.91
2022-10-23T10:39:49.705Z,95287.13
2022-10-23T10:43:39.882Z,95274.53
2022-10-23T10:47:29.111Z,95270.47
2022-10-23T10:51:16.649Z,95256.56
2022-10-23T10:55:04.630Z,95258.09
2022-10-23T10:58:49.853Z,95240.19
2022-10-23T11:02:39.467Z,95238.69
2022-10-23T11:06:24.670Z,95238.59
2022-10-23T11:10:16.774Z,95236.34
2022-10-23T11:13:59.547Z,95233.25
2022-10-23T11:17:47.707Z,95232.81
2022-10-23T11:21:33.029Z,95224.16
2022-10-23T11:25:55.050Z,95219.81
2022-10-23T11:29:51.704Z,95216.19
2022-10-23T11:34:14.744Z,95214.72
2022-10-23T11:38:14.813Z,95212.13
2022-10-23T11:41:59.158Z,95211.63
2022-10-23T11:45:42.467Z,95204.75
2022-10-23T11:49:26.464Z,95189.34
2022-10-23T11:53:25.690Z,95188.84
2022-10-23T11:57:13.033Z,95181.38
2022-10-23T12:01:07.048Z,95189.91
2022-10-23T12:04:52.381Z,95185.38
2022-10-23T12:08:36.942Z,95187.53
2022-10-23T12:12:29.557Z,95191.00
2022-10-23T12:16:12.311Z,95170.72
2022-10-23T12:20:03.782Z,95162.69
2022-10-23T12:23:54.053Z,95161.31
2022-10-23T12:27:42.586Z,95155.69
2022-10-23T12:31:34.501Z,95154.09
2022-10-23T12:35:30.127Z,95152.75
2022-10-23T12:39:27.076Z,95151.94
2022-10-23T12:43:24.562Z,95149.00
2022-10-23T12:47:07.256Z,95138.84
2022-10-23T12:50:52.297Z,95136.41
2022-10-23T12:54:39.786Z,95136.38
2022-10-23T12:58:27.220Z,95136.63
2022-10-23T13:02:15.464Z,95135.72
2022-10-23T13:06:02.727Z,95134.81
2022-10-23T13:09:49.574Z,95136.59
2022-10-23T13:13:32.403Z,95129.88
2022-10-23T13:17:15.058Z,95124.94
2022-10-23T13:24:48.563Z,95127.28
2022-10-23T13:28:33.517Z,95117.50
2022-10-23T13:32:23.181Z,95106.75
2022-10-23T13:36:21.939Z,95101.16
2022-10-23T13:40:07.595Z,95092.31
2022-10-23T13:43:50.311Z,95101.97
2022-10-23T13:47:32.942Z,95092.56
2022-10-23T13:51:20.324Z,95090.63
2022-10-23T13:55:03.084Z,95099.69
2022-10-23T13:58:45.936Z,95094.91
2022-10-23T14:02:28.775Z,95100.31
2022-10-23T14:06:11.615Z,95102.47
2022-10-23T14:09:55.634Z,95100.81
2022-10-23T14:13:38.329Z,95098.63
2022-10-23T14:17:21.187Z,95095.09
2022-10-23T14:21:05.244Z,95087.91
2022-10-23T14:24:48.270Z,95096.00
2022-10-23T14:28:32.385Z,95097.16
2022-10-23T14:32:15.159Z,95095.16
2022-10-23T14:35:57.936Z,95093.34
2022-10-23T14:39:40.684Z,95081.91
2022-10-23T14:43:24.110Z,95091.09
2022-10-23T14:47:08.207Z,95088.25
2022-10-23T14:50:50.984Z,95079.25
2022-10-23T14:54:36.749Z,95082.81
2022-10-23T14:58:21.600Z,95083.63
2022-10-23T15:02:04.255Z,95087.75
2022-10-23T15:05:48.303Z,95078.72
2022-10-23T15:09:32.655Z,95075.53
2022-10-23T15:13:15.389Z,95080.91
2022-10-23T15:16:58.100Z,95079.88
2022-10-23T15:20:40.734Z,95079.91
2022-10-23T15:24:24.701Z,95071.38
2022-10-23T15:28:07.327Z,95068.16
2022-10-23T15:31:54.403Z,95072.19
2022-10-23T15:35:37.247Z,95067.66
2022-10-23T15:39:23.047Z,95057.28
2022-10-23T15:43:09.485Z,95060.75
2022-10-23T15:46:54.374Z,95059.13
2022-10-23T15:50:37.454Z,95063.63
2022-10-23T15:54:20.916Z,95049.75
2022-10-23T15:58:05.513Z,95051.06
2022-10-23T16:01:49.800Z,95053.16
2022-10-23T16:05:32.670Z,95050.72
2022-10-23T16:09:15.978Z,95048.28
2022-10-23T16:13:04.688Z,95034.41
2022-10-23T16:16:47.335Z,95040.22
2022-10-23T16:20:31.679Z,95026.84
2022-10-23T16:24:14.341Z,95034.50
2022-10-23T16:27:59.493Z,95030.72
2022-10-23T16:31:42.140Z,95040.66
2022-10-23T16:35:24.896Z,95032.31
2022-10-23T16:39:10.406Z,95023.19
2022-10-23T16:42:59.378Z,95020.44
2022-10-23T16:46:42.159Z,95030.44
2022-10-23T16:50:24.871Z,95029.31
2022-10-23T16:54:11.011Z,95024.44
2022-10-23T16:58:06.958Z,95038.50
2022-10-23T17:01:49.728Z,95034.94
2022-10-23T17:05:34.446Z,95033.81
2022-10-23T17:09:19.300Z,95047.59
2022-10-23T17:13:09.217Z,95051.22
2022-10-23T17:16:52.979Z,95055.16
2022-10-23T17:20:35.786Z,95072.94
2022-10-23T17:24:20.378Z,95081.13
2022-10-23T17:28:22.849Z,95081.31
2022-10-23T17:32:06.038Z,95064.75
2022-10-23T17:35:48.766Z,95076.13
2022-10-23T17:39:32.861Z,95076.88
2022-10-23T17:43:24.795Z,95081.09
2022-10-23T17:47:07.510Z,95075.78
2022-10-23T17:50:50.197Z,95072.06
2022-10-23T17:54:34.283Z,95072.06
2022-10-23T17:58:31.938Z,95076.28
2022-10-23T18:02:14.688Z,95070.16
2022-10-23T18:05:57.490Z,95069.88
2022-10-23T18:09:41.619Z,95075.69
2022-10-23T18:13:41.392Z,95086.50
2022-10-23T18:17:24.100Z,95089.41
2022-10-23T18:21:07.646Z,95088.59
2022-10-23T18:24:51.802Z,95110.59
2022-10-23T18:28:48.760Z,95119.69
2022-10-23T18:32:31.457Z,95096.56
2022-10-23T18:36:16.419Z,95073.56
2022-10-23T18:40:00.551Z,95079.38
2022-10-23T18:43:55.683Z,95090.97
2022-10-23T18:47:38.426Z,95100.47
2022-10-23T18:51:25.856Z,95087.88
2022-10-23T18:55:11.224Z,95089.19
2022-10-23T18:58:59.459Z,95078.50
2022-10-23T19:02:42.192Z,95078.97
2022-10-23T19:06:24.987Z,95076.56
2022-10-23T19:10:08.340Z,95083.19
2022-10-23T19:18:10.525Z,95084.63
2022-10-23T19:21:53.547Z,95097.19
2022-10-23T19:25:36.897Z,95101.09
2022-10-23T19:29:21.834Z,95099.72
2022-10-23T19:33:04.779Z,95097.50
2022-10-23T19:36:48.792Z,95104.78
2022-10-23T19:40:31.600Z,95088.13
2022-10-23T19:44:15.149Z,95097.44
2022-10-23T19:47:57.794Z,95091.66
2022-10-23T19:51:40.496Z,95092.28
2022-10-23T19:55:24.470Z,95101.09
2022-10-23T19:59:07.165Z,95097.22
2022-10-23T20:02:51.422Z,95087.72
2022-10-23T20:06:37.601Z,95089.66
2022-10-23T20:10:20.347Z,95096.09
2022-10-23T20:14:05.135Z,95095.09
2022-10-23T20:17:47.800Z,95086.69
2022-10-23T20:21:30.704Z,95084.41
2022-10-23T20:25:13.366Z,95097.25
2022-10-23T20:28:57.093Z,95097.09
2022-10-23T20:32:41.511Z,95113.69
2022-10-23T20:36:27.187Z,95113.00
2022-10-23T20:40:10.530Z,95125.81
2022-10-23T20:43:53.134Z,95133.28
2022-10-23T20:47:35.775Z,95144.34
2022-10-23T20:51:21.622Z,95173.00
2022-10-23T20:55:04.543Z,95194.72
2022-10-23T20:58:47.328Z,95207.06
2022-10-23T21:02:29.975Z,95198.59
2022-10-23T21:06:14.559Z,95219.72
2022-10-23T21:09:58.545Z,95242.22
2022-10-23T21:13:41.172Z,95257.38
2022-10-23T21:17:23.853Z,95244.16
2022-10-23T21:21:06.737Z,95254.16
2022-10-23T21:24:49.443Z,95265.63
2022-10-23T21:28:34.012Z,95265.84
2022-10-23T21:32:16.677Z,95265.66
2022-10-23T21:36:12.853Z,95263.47
2022-10-23T21:39:56.412Z,95277.06
2022-10-23T21:43:40.543Z,95288.06
2022-10-23T21:47:23.647Z,95302.06
2022-10-23T21:51:06.544Z,95315.09
2022-10-23T21:54:52.875Z,95313.50
2022-10-23T21:58:35.550Z,95319.28
2022-10-23T22:02:19.572Z,95318.16
2022-10-23T22:06:02.259Z,95334.09
2022-10-23T22:09:45.083Z,95354.53
2022-10-23T22:13:27.703Z,95338.91
2022-10-23T22:17:10.403Z,95348.91
2022-10-23T22:21:01.390Z,95353.41
2022-10-23T22:24:44.129Z,95360.03
2022-10-23T22:28:26.732Z,95369.41
2022-10-23T22:32:09.396Z,95368.59
2022-10-23T22:35:52.075Z,95371.41
2022-10-23T22:39:36.091Z,95376.16
2022-10-23T22:43:18.833Z,95377.94
2022-10-23T22:47:01.475Z,95380.84
2022-10-23T22:50:44.084Z,95376.09
2022-10-23T22:54:26.737Z,95397.09
2022-10-23T22:58:10.784Z,95412.72
2022-10-23T23:01:53.483Z,95391.84
2022-10-23T23:09:25.343Z,95399.81
2022-10-23T23:13:09.849Z,95406.09
2022-10-23T23:16:52.988Z,95413.84
2022-10-23T23:20:35.821Z,95404.81
2022-10-23T23:24:18.463Z,95394.81
2022-10-23T23:28:01.115Z,95406.91
2022-10-23T23:31:45.360Z,95409.41
2022-10-23T23:35:29.333Z,95406.75
2022-10-23T23:39:12.092Z,95398.84
2022-10-23T23:42:54.725Z,95415.59
2022-10-23T23:46:37.382Z,95407.22
2022-10-23T23:50:21.883Z,95403.75
2022-10-23T23:54:04.803Z,95412.06
2022-10-23T23:57:47.617Z,95416.88
